Rechercher aéroport 
image banner adimage banner adimage banner ad
image banner ad

9CA6 - North Valley

Situé à Bishop, United States

ICAO - 9CA6, IATA -

Données fournies par Airmate  

Information générale

Coordonnées: N37°52'9" W118°5'42"
Élévation : 4960 feet MSL.
Variation magnétique : 15° East
Voir autres Aéroports à California

Données opérationnelles

Special qualification required
Heure actuelle UTC:
Heure actuelle locale:
Météo à : KBIH - Bishop ( 60 km )
METAR: KBIH 291456Z AUTO 32005KT 10SM CLR 22/09 A3017 RMK AO2 SLP168 T02170089 52008
TAF: KBIH 291120Z 2912/3012 VRB06KT P6SM SCT120 SCT250 FM292000 17012G20KT P6SM VCTS SCT070CB BKN120 TEMPO 2922/3001 VRB20G30KT TSRA BKN060CB FM300100 34013G22KT P6SM VCTS SCT070CB BKN250 FM300600 36007KT P6SM SCT080 BKN200
Voir NOTAMs / SUP AIP / TFR affectant cet aéroport [VIEW]
Fréquences de communication: [VIEW]

Pistes:

Identifiant RWYQFULongueur (ft)Largeur (ft)SurfaceLDA (ft)
165300100EARTH
345300100EARTH

Coordonnées de l'aéroport

Adresse: Bishop United States

Vue satellite de 9CA6